Time;durP1;ratioP1;P1;durP2;ratioP2;P2;SDS_P1;SDS_P2;PMS_P1;PMS_P2;Temp;Humidity;BMP_temperature;BMP_pressure;BME280_temperature;BME280_humidity;BME280_pressure;Samples;Min_cycle;Max_cycle;Signal;HPM_P1;HPM_P2
2023/11/23 00:00:24;;;;;;;33.27;28.27;;;6.70;99.90;;;;;;5119366;28;20454;-80
2023/11/23 00:02:54;;;;;;;30.17;26.80;;;6.80;99.90;;;;;;5119414;28;21066;-80
2023/11/23 00:05:22;;;;;;;32.90;29.30;;;6.80;99.90;;;;;;5119156;28;20497;-79
2023/11/23 00:07:50;;;;;;;30.77;27.43;;;6.80;99.90;;;;;;5119013;28;20441;-79
2023/11/23 00:10:19;;;;;;;33.27;28.50;;;6.80;99.90;;;;;;5119720;28;20447;-78
2023/11/23 00:12:47;;;;;;;34.13;28.17;;;6.80;99.90;;;;;;5117445;28;20470;-80
2023/11/23 00:15:15;;;;;;;33.10;29.13;;;6.90;99.90;;;;;;5118944;28;20470;-79
2023/11/23 00:17:44;;;;;;;32.60;29.10;;;6.90;99.90;;;;;;5118423;28;20454;-79
2023/11/23 00:20:14;;;;;;;32.50;28.67;;;6.90;99.90;;;;;;5118412;28;20443;-80
2023/11/23 00:22:42;;;;;;;33.10;29.57;;;6.90;99.90;;;;;;5121256;28;20494;-78
2023/11/23 00:25:14;;;;;;;32.03;27.87;;;6.90;99.90;;;;;;5122098;28;20988;-79
2023/11/23 00:27:42;;;;;;;35.10;29.77;;;7.00;99.90;;;;;;5123125;28;20932;-78
2023/11/23 00:30:12;;;;;;;33.30;28.90;;;7.00;99.90;;;;;;5121677;28;20460;-80
2023/11/23 00:32:40;;;;;;;34.93;29.90;;;7.00;99.90;;;;;;5121518;28;20657;-80
2023/11/23 00:35:09;;;;;;;34.00;28.93;;;7.00;99.90;;;;;;5123595;28;20563;-80
2023/11/23 00:37:39;;;;;;;37.80;29.77;;;7.00;99.90;;;;;;5121114;28;20449;-79
2023/11/23 00:40:08;;;;;;;36.20;31.73;;;7.00;99.90;;;;;;5121057;28;20454;-79
2023/11/23 00:42:36;;;;;;;33.43;29.63;;;7.00;99.90;;;;;;5119971;28;20468;-80
2023/11/23 00:45:06;;;;;;;38.57;32.40;;;7.00;99.90;;;;;;5120592;28;20446;-78
2023/11/23 00:47:34;;;;;;;37.93;31.50;;;7.00;99.90;;;;;;5119697;28;20457;-80
2023/11/23 00:50:03;;;;;;;37.53;31.53;;;7.10;99.90;;;;;;5121286;28;20959;-80
2023/11/23 00:52:32;;;;;;;39.17;30.90;;;7.10;99.90;;;;;;5121154;28;20466;-80
2023/11/23 00:55:04;;;;;;;38.53;31.97;;;7.10;99.90;;;;;;5119946;28;20476;-79
2023/11/23 00:57:34;;;;;;;43.00;34.07;;;7.10;99.90;;;;;;5120946;28;20451;-80
2023/11/23 01:00:06;;;;;;;42.67;35.10;;;7.10;99.90;;;;;;5120516;28;20458;-80
2023/11/23 01:02:35;;;;;;;43.90;34.87;;;7.20;99.90;;;;;;5120530;28;20466;-80
2023/11/23 01:05:05;;;;;;;43.10;36.37;;;7.10;99.90;;;;;;5119516;28;20455;-78
2023/11/23 01:07:34;;;;;;;43.90;35.97;;;7.20;99.90;;;;;;5120255;28;20955;-80
2023/11/23 01:10:04;;;;;;;41.63;35.17;;;7.20;99.90;;;;;;5120220;28;20955;-77
2023/11/23 01:12:32;;;;;;;47.10;36.87;;;7.20;99.90;;;;;;5119444;27;20465;-76
2023/11/23 01:15:01;;;;;;;48.13;34.27;;;7.20;99.90;;;;;;5120380;28;20965;-79
2023/11/23 01:17:30;;;;;;;47.57;37.43;;;7.20;99.90;;;;;;5118768;28;21014;-78
2023/11/23 01:19:59;;;;;;;45.47;36.67;;;7.30;99.90;;;;;;5118599;28;20999;-77
2023/11/23 01:22:27;;;;;;;51.40;37.70;;;7.30;99.90;;;;;;5119151;28;20505;-78
2023/11/23 01:24:55;;;;;;;47.80;37.90;;;7.30;99.90;;;;;;5120036;28;20455;-79
2023/11/23 01:27:25;;;;;;;48.70;39.30;;;7.30;99.90;;;;;;5119656;28;20876;-78
2023/11/23 01:29:54;;;;;;;50.03;38.80;;;7.40;99.90;;;;;;5118639;28;20449;-79
2023/11/23 01:32:22;;;;;;;46.17;37.10;;;7.40;99.90;;;;;;5117875;28;20558;-79
2023/11/23 01:34:51;;;;;;;48.07;39.27;;;7.40;99.90;;;;;;5117779;28;20573;-78
2023/11/23 01:37:19;;;;;;;45.77;38.20;;;7.40;99.90;;;;;;5117280;28;20445;-78
2023/11/23 01:39:47;;;;;;;43.23;36.40;;;7.40;99.90;;;;;;5119373;28;20481;-79
2023/11/23 01:42:15;;;;;;;44.07;36.03;;;7.50;99.90;;;;;;5118547;28;20564;-78
2023/11/23 01:44:45;;;;;;;51.90;38.70;;;7.50;99.90;;;;;;5118282;28;20442;-77
2023/11/23 01:47:14;;;;;;;45.27;38.50;;;7.50;99.90;;;;;;5118052;28;20439;-80
2023/11/23 01:49:44;;;;;;;47.37;39.13;;;7.50;99.90;;;;;;5120919;28;20495;-79
2023/11/23 01:52:12;;;;;;;46.83;38.47;;;7.50;99.90;;;;;;5120175;28;20470;-80
2023/11/23 01:54:41;;;;;;;47.40;37.83;;;7.60;99.90;;;;;;5121325;28;20468;-79
2023/11/23 01:57:09;;;;;;;47.13;37.80;;;7.60;99.90;;;;;;5120627;28;20493;-79
2023/11/23 01:59:38;;;;;;;45.17;37.47;;;7.60;99.90;;;;;;5119418;28;20527;-80
2023/11/23 02:02:08;;;;;;;49.40;39.00;;;7.60;99.90;;;;;;5121034;28;20478;-80
2023/11/23 02:04:36;;;;;;;43.60;37.87;;;7.70;99.90;;;;;;5123624;28;20444;-81
2023/11/23 02:07:05;;;;;;;42.57;37.87;;;7.70;99.90;;;;;;5121664;28;20446;-80
2023/11/23 02:09:33;;;;;;;48.63;37.33;;;7.70;99.90;;;;;;5120523;28;21031;-79
2023/11/23 02:12:06;;;;;;;42.73;35.17;;;7.70;99.90;;;;;;5119231;28;20993;-80
2023/11/23 02:14:35;;;;;;;60.30;37.97;;;7.80;99.90;;;;;;5119526;28;20458;-80
2023/11/23 02:17:17;;;;;;;48.93;37.57;;;7.80;99.90;;;;;;5119031;28;20439;-79
2023/11/23 02:19:48;;;;;;;41.77;37.17;;;7.80;99.90;;;;;;5121376;28;20510;-79
2023/11/23 02:22:16;;;;;;;44.00;36.37;;;7.80;99.90;;;;;;5120757;28;20545;-79
2023/11/23 02:24:46;;;;;;;44.87;36.60;;;7.90;99.90;;;;;;5119303;28;20864;-80
2023/11/23 02:27:16;;;;;;;41.80;35.50;;;7.80;99.90;;;;;;5119343;28;20949;-79
2023/11/23 02:29:44;;;;;;;45.43;38.67;;;7.80;99.90;;;;;;5119122;28;20446;-80
2023/11/23 02:32:12;;;;;;;44.03;38.03;;;7.90;99.90;;;;;;5120149;28;20449;-79
2023/11/23 02:34:40;;;;;;;46.70;39.07;;;7.90;99.90;;;;;;5119276;28;20539;-79
2023/11/23 02:37:08;;;;;;;45.93;36.77;;;7.90;99.90;;;;;;5117560;28;20478;-78
2023/11/23 02:39:37;;;;;;;45.57;38.83;;;7.90;99.90;;;;;;5117159;28;20847;-79
2023/11/23 02:42:08;;;;;;;47.27;40.27;;;7.90;99.90;;;;;;5117911;28;20515;-79
2023/11/23 02:44:36;;;;;;;45.17;38.10;;;8.00;99.90;;;;;;5117329;28;20457;-80
2023/11/23 02:47:04;;;;;;;46.07;38.87;;;8.00;99.90;;;;;;5117704;28;20853;-79
2023/11/23 02:49:33;;;;;;;46.60;39.37;;;8.00;99.90;;;;;;5117469;28;20489;-79
2023/11/23 02:52:01;;;;;;;49.93;39.70;;;8.00;99.90;;;;;;5119262;28;20476;-80
2023/11/23 02:54:30;;;;;;;46.40;38.53;;;8.10;99.90;;;;;;5119253;28;21039;-79
2023/11/23 02:56:59;;;;;;;45.53;40.57;;;8.10;99.90;;;;;;5119854;28;20477;-78
2023/11/23 02:59:28;;;;;;;49.93;40.17;;;8.20;99.90;;;;;;5118385;28;20507;-79
2023/11/23 03:01:56;;;;;;;48.53;39.67;;;8.20;99.90;;;;;;5118365;28;20497;-80
2023/11/23 03:04:25;;;;;;;42.90;38.00;;;8.20;99.90;;;;;;5118045;28;20831;-77
2023/11/23 03:06:53;;;;;;;49.97;40.23;;;8.20;99.90;;;;;;5117727;28;20451;-79
2023/11/23 03:09:23;;;;;;;48.23;39.50;;;8.30;99.90;;;;;;5117639;28;20469;-79
2023/11/23 03:11:51;;;;;;;44.73;38.50;;;8.30;99.90;;;;;;5117916;28;20498;-80
2023/11/23 03:14:20;;;;;;;47.90;40.80;;;8.30;99.90;;;;;;5119040;28;20434;-80
2023/11/23 03:16:50;;;;;;;46.60;39.07;;;8.30;99.90;;;;;;5119058;28;20474;-80
2023/11/23 03:19:18;;;;;;;47.73;40.77;;;8.40;99.90;;;;;;5118068;28;20473;-78
2023/11/23 03:21:47;;;;;;;45.33;38.20;;;8.40;99.90;;;;;;5117345;28;20467;-78
2023/11/23 03:24:15;;;;;;;50.20;41.33;;;8.40;99.90;;;;;;5117351;28;20449;-78
2023/11/23 03:26:43;;;;;;;47.30;38.63;;;8.40;99.90;;;;;;5116455;28;20439;-79
2023/11/23 03:29:12;;;;;;;48.43;39.40;;;8.50;99.90;;;;;;5118109;28;20454;-80
2023/11/23 03:31:40;;;;;;;43.23;38.00;;;8.50;99.90;;;;;;5116172;28;20466;-80
2023/11/23 03:34:10;;;;;;;46.47;38.40;;;8.50;99.90;;;;;;5117913;28;20431;-79
2023/11/23 03:36:40;;;;;;;47.50;39.70;;;8.60;99.90;;;;;;5117314;28;21022;-78
2023/11/23 03:39:08;;;;;;;47.03;39.60;;;8.60;99.90;;;;;;5115891;28;20452;-80
2023/11/23 03:41:36;;;;;;;45.60;38.37;;;8.70;99.90;;;;;;5116797;28;20828;-80
2023/11/23 03:44:05;;;;;;;45.40;37.47;;;8.70;99.90;;;;;;5118066;28;20443;-81
2023/11/23 03:46:33;;;;;;;39.57;35.27;;;8.70;99.90;;;;;;5117137;28;20955;-81
2023/11/23 03:49:01;;;;;;;42.00;35.73;;;8.80;99.90;;;;;;5117798;28;20492;-80
2023/11/23 03:51:31;;;;;;;41.70;36.10;;;8.80;99.90;;;;;;5120246;28;20823;-81
2023/11/23 03:54:02;;;;;;;40.73;35.90;;;8.80;99.90;;;;;;5117222;28;20443;-79
2023/11/23 03:56:30;;;;;;;44.83;36.13;;;8.80;99.90;;;;;;5120809;28;20475;-81
2023/11/23 03:58:58;;;;;;;41.90;34.57;;;8.90;99.90;;;;;;5123758;28;20447;-80
2023/11/23 04:01:27;;;;;;;37.60;33.50;;;8.90;99.90;;;;;;5123043;28;20462;-79
2023/11/23 04:03:55;;;;;;;42.40;35.03;;;8.90;99.90;;;;;;5121978;28;20478;-79
2023/11/23 04:06:23;;;;;;;41.97;32.80;;;8.90;99.90;;;;;;5122056;28;20504;-79
2023/11/23 04:08:53;;;;;;;41.53;34.43;;;9.00;99.90;;;;;;5120959;28;20438;-78
2023/11/23 04:11:21;;;;;;;42.40;34.63;;;9.00;99.90;;;;;;5123422;28;20474;-81
2023/11/23 04:13:51;;;;;;;41.40;35.57;;;9.00;99.90;;;;;;5123283;28;20787;-80
2023/11/23 04:16:19;;;;;;;43.00;35.70;;;9.10;99.90;;;;;;5121596;28;20487;-80
2023/11/23 04:18:47;;;;;;;48.57;35.90;;;9.20;99.90;;;;;;5122343;28;20951;-79
2023/11/23 04:21:16;;;;;;;46.03;34.90;;;9.10;99.90;;;;;;5121025;28;20909;-80
2023/11/23 04:23:45;;;;;;;40.60;33.10;;;9.20;99.90;;;;;;5120485;28;20440;-79
2023/11/23 04:26:14;;;;;;;40.23;33.57;;;9.20;99.90;;;;;;5121142;28;20457;-80
2023/11/23 04:28:42;;;;;;;39.20;33.67;;;9.20;99.90;;;;;;5123265;28;20435;-80
2023/11/23 04:31:10;;;;;;;42.60;32.73;;;9.30;99.90;;;;;;5120793;28;20462;-79
2023/11/23 04:33:39;;;;;;;42.37;34.30;;;9.30;99.90;;;;;;5120011;28;20520;-80
2023/11/23 04:36:07;;;;;;;46.60;37.20;;;9.30;99.90;;;;;;5120122;28;20840;-79
2023/11/23 04:38:36;;;;;;;38.33;32.87;;;9.40;99.90;;;;;;5120014;28;20530;-80
2023/11/23 04:41:05;;;;;;;38.30;31.13;;;9.30;99.90;;;;;;5120495;28;20876;-81
2023/11/23 04:43:35;;;;;;;38.80;31.87;;;9.40;99.90;;;;;;5120671;28;20968;-79
2023/11/23 04:46:03;;;;;;;38.30;32.33;;;9.40;99.90;;;;;;5121322;28;20447;-79
2023/11/23 04:48:32;;;;;;;37.90;31.07;;;9.40;99.90;;;;;;5119432;28;20898;-80
2023/11/23 04:51:00;;;;;;;38.77;31.50;;;9.50;99.90;;;;;;5118509;28;20471;-80
2023/11/23 04:53:28;;;;;;;34.50;28.50;;;9.50;99.90;;;;;;5119011;28;20444;-80
2023/11/23 04:55:57;;;;;;;34.27;29.73;;;9.50;99.90;;;;;;5119795;28;20436;-79
2023/11/23 04:58:26;;;;;;;33.50;25.20;;;9.60;99.90;;;;;;5118364;28;20483;-81
2023/11/23 05:00:55;;;;;;;30.63;27.13;;;9.60;99.90;;;;;;5119818;28;20492;-82
2023/11/23 05:03:23;;;;;;;34.33;28.23;;;9.60;99.90;;;;;;5120807;28;20484;-80
2023/11/23 05:05:52;;;;;;;32.60;27.00;;;9.60;99.90;;;;;;5119460;28;20432;-79
2023/11/23 05:08:20;;;;;;;36.33;28.23;;;9.70;99.90;;;;;;5119351;28;20936;-81
2023/11/23 05:10:48;;;;;;;33.37;26.87;;;9.70;99.90;;;;;;5119794;28;20451;-80
2023/11/23 05:13:16;;;;;;;31.60;25.93;;;9.70;99.90;;;;;;5121400;28;20963;-79
2023/11/23 05:15:45;;;;;;;31.40;26.93;;;9.70;99.90;;;;;;5121715;28;20435;-79
2023/11/23 05:18:15;;;;;;;31.57;25.90;;;9.80;99.90;;;;;;5120421;28;20553;-79
2023/11/23 05:20:43;;;;;;;30.20;24.60;;;9.80;99.90;;;;;;5120589;28;20501;-80
2023/11/23 05:23:11;;;;;;;30.43;24.17;;;9.80;99.90;;;;;;5123038;28;20467;-80
2023/11/23 05:25:39;;;;;;;28.50;24.27;;;9.90;99.90;;;;;;5122435;28;20490;-80
2023/11/23 05:28:08;;;;;;;25.30;22.63;;;9.90;99.90;;;;;;5121256;27;20455;-80
2023/11/23 05:30:36;;;;;;;25.67;22.50;;;9.90;99.90;;;;;;5122575;28;20443;-79
2023/11/23 05:33:04;;;;;;;29.87;22.97;;;9.90;99.90;;;;;;5121550;28;20478;-81
2023/11/23 05:35:34;;;;;;;26.73;21.97;;;9.90;99.90;;;;;;5124517;28;21005;-80
2023/11/23 05:38:02;;;;;;;23.93;21.37;;;10.00;99.90;;;;;;5125286;28;21052;-80
2023/11/23 05:40:30;;;;;;;24.93;21.37;;;10.00;99.90;;;;;;5123051;28;20448;-80
2023/11/23 05:42:58;;;;;;;24.83;19.73;;;10.00;99.90;;;;;;5122805;28;20520;-79
2023/11/23 05:45:33;;;;;;;22.63;20.23;;;10.10;99.90;;;;;;5124383;28;20447;-80
2023/11/23 05:48:02;;;;;;;25.40;20.57;;;10.10;99.90;;;;;;5123108;28;20461;-80
2023/11/23 05:50:30;;;;;;;20.53;17.53;;;10.10;99.90;;;;;;5126731;28;20444;-80
2023/11/23 05:53:00;;;;;;;21.37;19.03;;;10.10;99.90;;;;;;5124424;28;20545;-80
2023/11/23 05:55:27;;;;;;;21.10;18.30;;;10.10;99.90;;;;;;5123368;28;20440;-80
2023/11/23 05:57:55;;;;;;;22.03;17.93;;;10.20;99.90;;;;;;5122904;28;20471;-80
2023/11/23 06:00:24;;;;;;;22.30;15.97;;;10.20;99.90;;;;;;5123326;28;20952;-80
2023/11/23 06:02:55;;;;;;;19.53;16.33;;;10.20;99.90;;;;;;5123637;28;20471;-80
2023/11/23 06:05:23;;;;;;;18.73;15.70;;;10.20;99.90;;;;;;5123637;28;20446;-80
2023/11/23 06:07:51;;;;;;;18.60;15.70;;;10.30;99.90;;;;;;5125684;28;20444;-80
2023/11/23 06:10:21;;;;;;;16.20;14.60;;;10.30;99.90;;;;;;5124497;28;20451;-80
2023/11/23 06:12:49;;;;;;;19.93;13.07;;;10.30;99.90;;;;;;5128681;28;20490;-80
2023/11/23 06:15:17;;;;;;;15.70;13.63;;;10.30;99.90;;;;;;5127312;28;20461;-80
2023/11/23 06:17:46;;;;;;;16.70;12.73;;;10.40;99.90;;;;;;5125396;28;20489;-80
2023/11/23 06:20:15;;;;;;;16.87;13.17;;;10.40;99.90;;;;;;5125232;28;20443;-81
2023/11/23 06:22:43;;;;;;;14.60;12.67;;;10.40;99.90;;;;;;5122763;28;20492;-81
2023/11/23 06:25:12;;;;;;;18.10;11.80;;;10.40;99.90;;;;;;5127163;28;20467;-81
2023/11/23 06:27:42;;;;;;;12.50;10.87;;;10.40;99.90;;;;;;5128650;28;20475;-82
2023/11/23 06:30:11;;;;;;;17.00;12.87;;;10.50;99.90;;;;;;5127993;28;20455;-81
2023/11/23 06:32:40;;;;;;;13.73;11.37;;;10.50;99.90;;;;;;5128495;28;20469;-82
2023/11/23 06:35:09;;;;;;;12.83;10.43;;;10.50;99.90;;;;;;5126410;28;20965;-80
2023/11/23 06:37:37;;;;;;;15.10;12.37;;;10.50;99.90;;;;;;5126309;28;20468;-80
2023/11/23 06:40:06;;;;;;;13.57;11.87;;;10.50;99.90;;;;;;5133898;28;20477;-77
2023/11/23 06:42:34;;;;;;;14.20;10.80;;;10.60;99.90;;;;;;5130304;28;20463;-80
2023/11/23 06:45:08;;;;;;;15.23;10.40;;;10.60;99.90;;;;;;5119979;28;20490;-82
2023/11/23 06:47:37;;;;;;;15.53;11.57;;;10.60;99.90;;;;;;5118883;28;20811;-81
2023/11/23 06:50:06;;;;;;;14.77;11.83;;;10.60;99.90;;;;;;5118416;28;20471;-81
2023/11/23 06:52:34;;;;;;;15.93;11.07;;;10.60;99.90;;;;;;5120375;28;20518;-81
2023/11/23 06:55:03;;;;;;;16.37;10.87;;;10.60;99.90;;;;;;5118741;28;20448;-79
2023/11/23 06:57:31;;;;;;;12.37;11.10;;;10.60;99.90;;;;;;5117693;28;20475;-81
2023/11/23 06:59:59;;;;;;;12.33;9.00;;;10.70;99.90;;;;;;5120584;28;20526;-82
2023/11/23 07:02:30;;;;;;;13.27;9.47;;;10.70;99.90;;;;;;5118648;28;20463;-82
2023/11/23 07:05:00;;;;;;;20.23;9.73;;;10.70;99.90;;;;;;5117979;28;20458;-81
2023/11/23 07:07:32;;;;;;;15.80;9.60;;;10.70;99.90;;;;;;5121706;28;20491;-81
2023/11/23 07:10:00;;;;;;;11.20;9.40;;;10.70;99.90;;;;;;5120285;28;20415;-80
2023/11/23 07:12:28;;;;;;;12.63;8.70;;;10.70;99.90;;;;;;5117540;28;20546;-82
2023/11/23 07:14:57;;;;;;;13.17;8.10;;;10.70;99.90;;;;;;5117169;28;20450;-83
2023/11/23 07:17:25;;;;;;;15.17;8.57;;;10.70;99.90;;;;;;5116524;28;20435;-84
2023/11/23 07:19:56;;;;;;;14.40;8.20;;;10.70;99.90;;;;;;5117166;28;20447;-81
2023/11/23 07:22:24;;;;;;;17.07;8.10;;;10.70;99.90;;;;;;5117888;28;20466;-82
2023/11/23 07:24:52;;;;;;;12.67;7.40;;;10.70;99.90;;;;;;5115655;28;21005;-80
2023/11/23 07:27:20;;;;;;;14.20;7.13;;;10.70;99.90;;;;;;5116514;28;20431;-81
2023/11/23 07:29:49;;;;;;;13.83;8.10;;;10.80;99.90;;;;;;5117428;28;20454;-80
2023/11/23 07:32:17;;;;;;;10.47;6.90;;;10.80;99.90;;;;;;5119003;28;20553;-80
2023/11/23 07:34:46;;;;;;;11.70;7.00;;;10.90;99.90;;;;;;5118190;28;20542;-78
2023/11/23 07:37:15;;;;;;;8.70;7.20;;;10.80;99.90;;;;;;5119630;27;20443;-80
2023/11/23 07:39:44;;;;;;;12.70;6.00;;;10.90;99.90;;;;;;5117846;28;20474;-80
2023/11/23 07:42:12;;;;;;;7.70;5.50;;;10.90;99.90;;;;;;5118389;28;20471;-80
2023/11/23 07:44:41;;;;;;;12.77;6.97;;;10.90;99.90;;;;;;5119542;28;20787;-80
2023/11/23 07:47:10;;;;;;;9.57;5.73;;;10.90;99.90;;;;;;5118033;28;20543;-81
2023/11/23 07:49:39;;;;;;;12.37;6.00;;;10.90;99.90;;;;;;5118298;28;20450;-81
2023/11/23 07:52:07;;;;;;;9.57;5.40;;;10.90;99.90;;;;;;5119665;28;20550;-80
2023/11/23 07:54:36;;;;;;;9.40;5.53;;;11.00;99.90;;;;;;5118545;28;20451;-79
2023/11/23 07:57:05;;;;;;;9.83;5.93;;;11.00;99.90;;;;;;5120310;28;20447;-79
2023/11/23 07:59:36;;;;;;;8.63;4.80;;;11.00;99.90;;;;;;5119168;28;20508;-79
2023/11/23 08:02:04;;;;;;;8.10;5.37;;;11.00;99.90;;;;;;5119233;28;20519;-81
2023/11/23 08:04:33;;;;;;;9.20;4.40;;;11.10;99.90;;;;;;5119085;28;20528;-82
2023/11/23 08:07:01;;;;;;;7.00;4.20;;;11.10;99.90;;;;;;5119962;28;20447;-82
2023/11/23 08:09:30;;;;;;;12.87;4.63;;;11.10;99.90;;;;;;5120254;28;20554;-82
2023/11/23 08:12:00;;;;;;;11.43;5.27;;;11.10;99.90;;;;;;5119774;27;20807;-82
2023/11/23 08:14:28;;;;;;;9.03;4.20;;;11.20;99.90;;;;;;5118545;28;20459;-82
2023/11/23 08:16:56;;;;;;;7.17;4.80;;;11.20;99.90;;;;;;5119320;28;20497;-81
2023/11/23 08:19:25;;;;;;;11.23;3.83;;;11.30;99.90;;;;;;5119860;27;20473;-81
2023/11/23 08:21:53;;;;;;;9.97;4.80;;;11.30;99.90;;;;;;5118522;28;20467;-81
2023/11/23 08:24:21;;;;;;;7.60;3.90;;;11.30;99.90;;;;;;5118736;28;20439;-81
2023/11/23 08:26:50;;;;;;;14.20;4.83;;;11.30;99.90;;;;;;5117931;28;20446;-83
2023/11/23 08:29:20;;;;;;;9.13;3.90;;;11.30;99.90;;;;;;5118320;28;20459;-80
2023/11/23 08:31:51;;;;;;;6.97;4.07;;;11.40;99.90;;;;;;5120432;28;20835;-82
2023/11/23 08:34:19;;;;;;;7.27;3.57;;;11.40;99.90;;;;;;5117814;28;20442;-80
2023/11/23 08:36:47;;;;;;;14.20;4.00;;;11.60;99.90;;;;;;5119088;28;21005;-81
2023/11/23 08:39:15;;;;;;;7.37;3.30;;;11.40;99.90;;;;;;5117572;28;20463;-81
2023/11/23 08:41:44;;;;;;;7.00;3.73;;;11.50;99.90;;;;;;5116881;28;20474;-81
2023/11/23 08:44:13;;;;;;;9.47;4.00;;;11.50;99.90;;;;;;5117588;28;20933;-79
2023/11/23 08:46:43;;;;;;;7.80;3.47;;;11.50;99.90;;;;;;5118937;28;20431;-82
2023/11/23 08:49:12;;;;;;;7.23;3.40;;;11.50;99.90;;;;;;5119560;28;20436;-79
2023/11/23 08:51:40;;;;;;;7.03;3.50;;;11.60;99.90;;;;;;5120251;28;20487;-80
2023/11/23 08:54:09;;;;;;;6.00;2.90;;;11.60;99.90;;;;;;5119859;28;20451;-79
2023/11/23 08:56:38;;;;;;;9.20;2.90;;;11.60;99.90;;;;;;5119596;28;20455;-81
2023/11/23 08:59:06;;;;;;;8.87;3.30;;;11.60;99.90;;;;;;5120489;28;20474;-80
2023/11/23 09:01:35;;;;;;;7.07;3.10;;;11.60;99.90;;;;;;5118543;28;20467;-81
2023/11/23 09:04:07;;;;;;;6.97;3.33;;;11.60;99.90;;;;;;5117856;28;20463;-81
2023/11/23 09:06:36;;;;;;;7.47;3.27;;;11.70;99.90;;;;;;5120250;28;20506;-80
2023/11/23 09:09:05;;;;;;;8.43;3.60;;;11.70;99.90;;;;;;5118317;28;20940;-80
2023/11/23 09:11:33;;;;;;;7.57;3.80;;;11.70;99.90;;;;;;5118891;28;20463;-80
2023/11/23 09:14:02;;;;;;;4.83;3.00;;;11.70;99.90;;;;;;5120140;28;20866;-79
2023/11/23 09:16:31;;;;;;;6.83;3.00;;;11.70;99.90;;;;;;5122074;28;20498;-81
2023/11/23 09:18:59;;;;;;;9.13;4.23;;;11.70;99.90;;;;;;5119027;28;20469;-79
2023/11/23 09:21:29;;;;;;;8.03;3.50;;;11.70;99.90;;;;;;5118059;28;20475;-77
2023/11/23 09:23:57;;;;;;;14.00;3.70;;;11.80;99.90;;;;;;5119178;28;20485;-80
2023/11/23 09:26:26;;;;;;;5.97;3.03;;;11.80;99.90;;;;;;5121080;28;20440;-80
2023/11/23 09:28:54;;;;;;;7.77;3.40;;;11.80;99.90;;;;;;5120568;28;20428;-79
2023/11/23 09:31:23;;;;;;;6.23;3.13;;;11.90;99.90;;;;;;5119748;28;20845;-80
2023/11/23 09:33:52;;;;;;;8.93;3.23;;;11.90;99.90;;;;;;5119120;28;20444;-78
2023/11/23 09:36:20;;;;;;;5.40;3.20;;;11.90;99.90;;;;;;5118512;28;20505;-81
2023/11/23 09:38:50;;;;;;;6.43;2.80;;;11.90;99.90;;;;;;5119332;28;20936;-81
2023/11/23 09:41:19;;;;;;;6.30;2.80;;;12.00;99.90;;;;;;5117406;28;20506;-81
2023/11/23 09:43:48;;;;;;;6.43;3.00;;;12.00;99.90;;;;;;5116275;28;20980;-79
2023/11/23 09:46:16;;;;;;;3.27;2.60;;;12.00;99.90;;;;;;5116585;28;20447;-80
2023/11/23 09:48:46;;;;;;;4.87;2.83;;;12.00;99.90;;;;;;5115888;28;20451;-79
2023/11/23 09:51:15;;;;;;;5.03;2.50;;;12.00;99.90;;;;;;5116482;28;20466;-79
2023/11/23 09:53:44;;;;;;;6.07;2.67;;;12.00;99.90;;;;;;5115563;28;20858;-80
2023/11/23 09:56:16;;;;;;;4.03;2.73;;;12.10;99.90;;;;;;5116845;28;20443;-79
2023/11/23 09:58:44;;;;;;;7.03;2.87;;;12.10;99.90;;;;;;5117659;28;20416;-79
2023/11/23 10:01:12;;;;;;;11.93;3.20;;;12.10;99.90;;;;;;5118955;28;20841;-79
2023/11/23 10:03:47;;;;;;;13.40;4.10;;;12.10;99.90;;;;;;5118166;28;20963;-78
2023/11/23 10:06:15;;;;;;;6.03;2.23;;;12.10;99.90;;;;;;5118877;28;20427;-79
2023/11/23 10:08:43;;;;;;;5.53;3.40;;;12.20;99.90;;;;;;5116871;28;20448;-79
2023/11/23 10:11:14;;;;;;;5.77;2.63;;;12.20;99.90;;;;;;5119021;28;20599;-79
2023/11/23 10:13:42;;;;;;;5.20;2.67;;;12.20;99.90;;;;;;5118202;28;20523;-80
2023/11/23 10:16:12;;;;;;;6.07;2.60;;;12.20;99.90;;;;;;5119827;28;20857;-78
2023/11/23 10:18:42;;;;;;;7.57;2.93;;;12.20;99.90;;;;;;5117541;28;20549;-80
2023/11/23 10:21:12;;;;;;;5.67;2.50;;;12.20;99.90;;;;;;5117099;28;20475;-78
2023/11/23 10:23:43;;;;;;;6.50;2.87;;;12.30;99.90;;;;;;5116975;28;20440;-80
2023/11/23 10:26:13;;;;;;;6.70;2.57;;;12.30;99.90;;;;;;5117257;28;20547;-79
2023/11/23 10:28:41;;;;;;;6.37;2.50;;;12.30;99.90;;;;;;5117022;28;20454;-79
2023/11/23 10:31:09;;;;;;;6.73;2.90;;;12.30;99.90;;;;;;5118491;28;20497;-81
2023/11/23 10:33:42;;;;;;;6.10;3.10;;;12.40;99.90;;;;;;5117355;28;20444;-79
2023/11/23 10:36:11;;;;;;;10.13;3.03;;;12.40;99.90;;;;;;5116597;28;20451;-78
2023/11/23 10:38:41;;;;;;;6.93;2.50;;;12.40;99.90;;;;;;5115495;28;20512;-80
2023/11/23 10:41:14;;;;;;;6.40;2.60;;;12.40;99.90;;;;;;5116005;28;20513;-79
2023/11/23 10:43:45;;;;;;;4.40;2.70;;;12.40;99.90;;;;;;5116753;28;20438;-80
2023/11/23 10:46:15;;;;;;;6.27;3.47;;;12.50;99.90;;;;;;5116501;28;20448;-81
2023/11/23 10:48:46;;;;;;;3.47;3.13;;;12.50;99.90;;;;;;5116729;28;20451;-80
2023/11/23 10:51:16;;;;;;;6.07;2.40;;;12.50;99.90;;;;;;5116455;28;20478;-79
2023/11/23 10:53:44;;;;;;;6.00;3.30;;;12.50;99.90;;;;;;5116649;28;20458;-80
2023/11/23 10:56:18;;;;;;;7.40;2.50;;;12.50;99.90;;;;;;5115379;28;20455;-79
2023/11/23 10:58:50;;;;;;;3.87;2.90;;;12.50;99.90;;;;;;5115978;28;20435;-80
2023/11/23 11:01:22;;;;;;;4.63;3.07;;;12.60;99.90;;;;;;5116339;28;20475;-80
2023/11/23 11:03:51;;;;;;;6.10;2.73;;;12.60;99.90;;;;;;5116142;28;20439;-80
2023/11/23 11:06:21;;;;;;;9.53;3.07;;;12.60;99.90;;;;;;5116733;28;20447;-79
2023/11/23 11:08:51;;;;;;;4.80;2.63;;;12.60;99.90;;;;;;5118564;28;20443;-81
2023/11/23 11:11:23;;;;;;;6.50;3.50;;;12.60;99.90;;;;;;5119322;28;20554;-81
2023/11/23 11:14:01;;;;;;;4.40;2.83;;;12.70;99.90;;;;;;5117991;28;20531;-81
2023/11/23 11:16:34;;;;;;;6.87;2.73;;;12.70;99.90;;;;;;5117623;28;20447;-81
2023/11/23 11:19:06;;;;;;;7.40;2.47;;;12.70;99.90;;;;;;5117018;28;20450;-80
2023/11/23 11:21:42;;;;;;;6.03;3.43;;;12.70;99.90;;;;;;5117993;28;20479;-80
2023/11/23 11:24:18;;;;;;;4.17;2.20;;;12.70;99.90;;;;;;5118915;28;20435;-81
2023/11/23 11:26:49;;;;;;;5.70;3.00;;;12.70;99.90;;;;;;5118379;28;20445;-81
2023/11/23 11:29:18;;;;;;;5.63;2.40;;;12.70;99.90;;;;;;5118624;28;20916;-80
2023/11/23 11:31:48;;;;;;;4.67;2.97;;;12.80;99.90;;;;;;5119816;28;20459;-81
2023/11/23 11:34:19;;;;;;;8.50;3.10;;;12.80;99.90;;;;;;5119012;28;20427;-80
2023/11/23 11:36:55;;;;;;;3.93;2.30;;;12.80;99.90;;;;;;5118565;28;20451;-80
2023/11/23 11:39:28;;;;;;;4.57;2.63;;;12.80;99.90;;;;;;5118168;28;20457;-80
2023/11/23 11:41:59;;;;;;;7.30;2.50;;;12.80;99.90;;;;;;5117338;28;20479;-81
2023/11/23 11:44:30;;;;;;;5.10;2.73;;;12.90;99.90;;;;;;5117586;28;20443;-78
2023/11/23 11:46:58;;;;;;;5.87;2.70;;;12.80;99.90;;;;;;5115404;28;20796;-78
2023/11/23 11:49:27;;;;;;;8.27;2.67;;;12.80;99.90;;;;;;5116838;28;20442;-80
2023/11/23 11:51:55;;;;;;;5.40;3.20;;;12.90;99.90;;;;;;5117403;28;20509;-80
2023/11/23 11:54:24;;;;;;;6.40;2.53;;;12.90;99.90;;;;;;5115981;28;20475;-79
2023/11/23 11:56:53;;;;;;;6.97;2.20;;;12.90;99.90;;;;;;5117606;28;20490;-80
2023/11/23 11:59:25;;;;;;;7.87;2.80;;;12.90;99.90;;;;;;5116156;28;20447;-79
2023/11/23 12:01:57;;;;;;;5.83;2.60;;;12.90;99.90;;;;;;5116372;28;20497;-79
2023/11/23 12:04:26;;;;;;;4.37;2.13;;;12.90;99.90;;;;;;5117403;28;20428;-81
2023/11/23 12:06:54;;;;;;;5.10;2.60;;;12.90;99.90;;;;;;5115240;28;20975;-80
2023/11/23 12:09:23;;;;;;;5.20;2.50;;;12.90;99.90;;;;;;5116252;28;20485;-81
2023/11/23 12:12:06;;;;;;;6.80;3.07;;;13.00;99.90;;;;;;5116542;28;20467;-81
2023/11/23 12:14:36;;;;;;;4.90;2.70;;;12.90;99.90;;;;;;5116735;28;20450;-80
2023/11/23 12:17:10;;;;;;;6.40;2.23;;;13.00;99.90;;;;;;5119356;28;20451;-80
2023/11/23 12:19:49;;;;;;;4.40;2.40;;;13.00;99.90;;;;;;5119455;28;20440;-80
2023/11/23 12:22:21;;;;;;;6.70;2.13;;;13.00;99.90;;;;;;5119274;28;20475;-80
2023/11/23 12:24:52;;;;;;;3.87;2.23;;;13.00;99.90;;;;;;5119261;28;20487;-79
2023/11/23 12:27:21;;;;;;;5.07;2.67;;;13.00;99.90;;;;;;5119391;28;20439;-77
2023/11/23 12:29:51;;;;;;;6.23;3.20;;;13.00;99.90;;;;;;5118957;28;20966;-78
2023/11/23 12:32:21;;;;;;;6.90;2.87;;;13.00;99.90;;;;;;5118304;28;20478;-79
2023/11/23 12:34:49;;;;;;;5.90;2.60;;;13.00;99.90;;;;;;5120454;28;20439;-80
2023/11/23 12:37:18;;;;;;;4.00;2.60;;;13.00;99.90;;;;;;5119263;28;20948;-80
2023/11/23 12:39:49;;;;;;;10.73;3.10;;;13.00;99.90;;;;;;5118928;28;20537;-79
2023/11/23 12:42:18;;;;;;;7.17;2.60;;;13.00;99.90;;;;;;5118946;28;20479;-79
2023/11/23 12:44:50;;;;;;;9.63;2.80;;;13.00;99.90;;;;;;5117847;28;20469;-79
2023/11/23 12:47:21;;;;;;;7.63;2.77;;;13.00;99.90;;;;;;5119191;28;20823;-79
2023/11/23 12:49:51;;;;;;;6.40;2.50;;;13.00;99.90;;;;;;5118223;28;20940;-79